Stewart, Ohio
Current Conditions -  °F | °C
As of 10:55 PM on Wednesday 22 Oct 2014 (Local Time) from KUNI Reporting Station
Overcast Overcast  
Wind Chill: 48°   Ceiling: 3400
Heat Index: 48°   Visibility: 10mi
Dew Point: 39°   Wind: 3mph
Humidity: 72%   Direction: 320°NW
Pressure: 30.24"   Gusts: NA
Location:  39.31°N, 81.89°W
Report Text: KUNI 230255Z AUTO 32003KT 10SM OVC034 09/04 A3024 RMK AO2 T00900041
Loading
Personal Weather Stations






























Interactive Weather Map
Tropical Storm Tracking
New forecast layout! Learn more

10-Day Weather Forecast

Advertisements
Track Severe Weather on mobile